sensor_id;sensor_type;location;lat;lon;timestamp;P1;durP1;ratioP1;P2;durP2;ratioP2
16314;SDS011;8266;52.150;4.768;2022-12-29T00:00:20;1.83;;;1.67;;
16314;SDS011;8266;52.150;4.768;2022-12-29T00:02:48;1.48;;;1.23;;
16314;SDS011;8266;52.150;4.768;2022-12-29T00:05:15;2.28;;;1.20;;
16314;SDS011;8266;52.150;4.768;2022-12-29T00:07:42;1.70;;;1.15;;
16314;SDS011;8266;52.150;4.768;2022-12-29T00:10:09;1.23;;;1.10;;
16314;SDS011;8266;52.150;4.768;2022-12-29T00:12:36;1.20;;;1.00;;
16314;SDS011;8266;52.150;4.768;2022-12-29T00:15:20;1.30;;;1.20;;
16314;SDS011;8266;52.150;4.768;2022-12-29T00:18:07;1.25;;;1.10;;
16314;SDS011;8266;52.150;4.768;2022-12-29T00:20:35;1.33;;;0.90;;
16314;SDS011;8266;52.150;4.768;2022-12-29T00:23:19;1.73;;;1.00;;
16314;SDS011;8266;52.150;4.768;2022-12-29T00:26:05;3.20;;;0.95;;
16314;SDS011;8266;52.150;4.768;2022-12-29T00:28:56;1.65;;;0.98;;
16314;SDS011;8266;52.150;4.768;2022-12-29T00:31:40;2.38;;;0.98;;
16314;SDS011;8266;52.150;4.768;2022-12-29T00:34:26;2.30;;;1.10;;
16314;SDS011;8266;52.150;4.768;2022-12-29T00:37:10;2.10;;;0.85;;
16314;SDS011;8266;52.150;4.768;2022-12-29T00:39:37;2.47;;;1.30;;
16314;SDS011;8266;52.150;4.768;2022-12-29T00:42:18;2.63;;;1.08;;
16314;SDS011;8266;52.150;4.768;2022-12-29T00:45:17;1.70;;;0.90;;
16314;SDS011;8266;52.150;4.768;2022-12-29T00:47:44;2.22;;;0.73;;
16314;SDS011;8266;52.150;4.768;2022-12-29T00:50:12;1.50;;;0.95;;
16314;SDS011;8266;52.150;4.768;2022-12-29T00:52:38;1.80;;;1.02;;
16314;SDS011;8266;52.150;4.768;2022-12-29T00:55:05;2.33;;;1.00;;
16314;SDS011;8266;52.150;4.768;2022-12-29T00:57:33;2.03;;;1.20;;
16314;SDS011;8266;52.150;4.768;2022-12-29T01:00:00;0.98;;;0.85;;
16314;SDS011;8266;52.150;4.768;2022-12-29T01:02:28;1.05;;;0.70;;
16314;SDS011;8266;52.150;4.768;2022-12-29T01:04:55;2.90;;;0.98;;
16314;SDS011;8266;52.150;4.768;2022-12-29T01:07:23;1.25;;;0.80;;
16314;SDS011;8266;52.150;4.768;2022-12-29T01:09:50;3.28;;;1.02;;
16314;SDS011;8266;52.150;4.768;2022-12-29T01:12:34;1.27;;;0.70;;
16314;SDS011;8266;52.150;4.768;2022-12-29T01:15:11;0.88;;;0.80;;
16314;SDS011;8266;52.150;4.768;2022-12-29T01:17:39;0.85;;;0.73;;
16314;SDS011;8266;52.150;4.768;2022-12-29T01:20:07;0.70;;;0.70;;
16314;SDS011;8266;52.150;4.768;2022-12-29T01:22:37;2.08;;;0.90;;
16314;SDS011;8266;52.150;4.768;2022-12-29T01:25:04;1.38;;;0.60;;
16314;SDS011;8266;52.150;4.768;2022-12-29T01:27:32;2.40;;;0.80;;
16314;SDS011;8266;52.150;4.768;2022-12-29T01:29:59;0.70;;;0.60;;
16314;SDS011;8266;52.150;4.768;2022-12-29T01:32:26;0.98;;;0.80;;
16314;SDS011;8266;52.150;4.768;2022-12-29T01:34:53;0.80;;;0.80;;
16314;SDS011;8266;52.150;4.768;2022-12-29T01:37:19;1.00;;;0.90;;
16314;SDS011;8266;52.150;4.768;2022-12-29T01:39:49;1.90;;;1.00;;
16314;SDS011;8266;52.150;4.768;2022-12-29T01:42:16;3.42;;;1.17;;
16314;SDS011;8266;52.150;4.768;2022-12-29T01:44:49;4.05;;;1.17;;
16314;SDS011;8266;52.150;4.768;2022-12-29T01:47:24;2.00;;;1.20;;
16314;SDS011;8266;52.150;4.768;2022-12-29T01:49:57;1.33;;;1.00;;
16314;SDS011;8266;52.150;4.768;2022-12-29T01:52:29;1.52;;;1.05;;
16314;SDS011;8266;52.150;4.768;2022-12-29T01:54:59;1.42;;;0.98;;
16314;SDS011;8266;52.150;4.768;2022-12-29T01:57:29;2.67;;;0.95;;
16314;SDS011;8266;52.150;4.768;2022-12-29T02:00:03;1.65;;;1.00;;
16314;SDS011;8266;52.150;4.768;2022-12-29T02:02:33;3.00;;;1.58;;
16314;SDS011;8266;52.150;4.768;2022-12-29T02:05:01;1.35;;;1.15;;
16314;SDS011;8266;52.150;4.768;2022-12-29T02:07:33;2.88;;;1.17;;
16314;SDS011;8266;52.150;4.768;2022-12-29T02:10:02;2.80;;;0.85;;
16314;SDS011;8266;52.150;4.768;2022-12-29T02:12:30;1.90;;;0.80;;
16314;SDS011;8266;52.150;4.768;2022-12-29T02:14:58;2.08;;;0.85;;
16314;SDS011;8266;52.150;4.768;2022-12-29T02:17:31;2.92;;;0.90;;
16314;SDS011;8266;52.150;4.768;2022-12-29T02:23:37;3.47;;;0.93;;
16314;SDS011;8266;52.150;4.768;2022-12-29T02:29:56;3.53;;;0.73;;
16314;SDS011;8266;52.150;4.768;2022-12-29T02:32:37;3.60;;;1.08;;
16314;SDS011;8266;52.150;4.768;2022-12-29T02:35:13;4.65;;;1.50;;
16314;SDS011;8266;52.150;4.768;2022-12-29T02:37:51;13.02;;;7.13;;
16314;SDS011;8266;52.150;4.768;2022-12-29T02:40:27;7.85;;;5.35;;
16314;SDS011;8266;52.150;4.768;2022-12-29T02:43:05;17.35;;;9.02;;
16314;SDS011;8266;52.150;4.768;2022-12-29T02:45:42;10.35;;;7.05;;
16314;SDS011;8266;52.150;4.768;2022-12-29T02:48:16;30.98;;;21.75;;
16314;SDS011;8266;52.150;4.768;2022-12-29T02:50:51;18.63;;;16.45;;
16314;SDS011;8266;52.150;4.768;2022-12-29T02:53:22;11.77;;;8.05;;
16314;SDS011;8266;52.150;4.768;2022-12-29T02:56:05;4.45;;;3.08;;
16314;SDS011;8266;52.150;4.768;2022-12-29T02:58:32;3.85;;;1.40;;
16314;SDS011;8266;52.150;4.768;2022-12-29T03:01:03;4.03;;;1.20;;
16314;SDS011;8266;52.150;4.768;2022-12-29T03:03:47;3.50;;;1.20;;
16314;SDS011;8266;52.150;4.768;2022-12-29T03:06:23;2.80;;;0.90;;
16314;SDS011;8266;52.150;4.768;2022-12-29T03:08:58;9.02;;;4.80;;
16314;SDS011;8266;52.150;4.768;2022-12-29T03:11:33;11.60;;;9.23;;
16314;SDS011;8266;52.150;4.768;2022-12-29T03:14:29;11.80;;;5.95;;
16314;SDS011;8266;52.150;4.768;2022-12-29T03:17:22;5.78;;;3.25;;
16314;SDS011;8266;52.150;4.768;2022-12-29T03:19:55;9.50;;;1.90;;
16314;SDS011;8266;52.150;4.768;2022-12-29T03:22:30;7.35;;;1.42;;
16314;SDS011;8266;52.150;4.768;2022-12-29T03:25:01;9.80;;;1.70;;
16314;SDS011;8266;52.150;4.768;2022-12-29T03:27:31;5.57;;;1.40;;
16314;SDS011;8266;52.150;4.768;2022-12-29T03:30:03;7.05;;;1.45;;
16314;SDS011;8266;52.150;4.768;2022-12-29T03:32:35;4.50;;;1.23;;
16314;SDS011;8266;52.150;4.768;2022-12-29T03:35:06;5.85;;;2.63;;
16314;SDS011;8266;52.150;4.768;2022-12-29T03:37:38;9.27;;;3.20;;
16314;SDS011;8266;52.150;4.768;2022-12-29T03:40:09;6.20;;;2.42;;
16314;SDS011;8266;52.150;4.768;2022-12-29T03:42:36;8.93;;;3.00;;
16314;SDS011;8266;52.150;4.768;2022-12-29T03:45:05;6.97;;;2.13;;
16314;SDS011;8266;52.150;4.768;2022-12-29T03:47:34;5.70;;;1.80;;
16314;SDS011;8266;52.150;4.768;2022-12-29T03:50:01;4.88;;;1.98;;
16314;SDS011;8266;52.150;4.768;2022-12-29T03:52:29;3.55;;;1.05;;
16314;SDS011;8266;52.150;4.768;2022-12-29T03:54:56;7.78;;;1.65;;
16314;SDS011;8266;52.150;4.768;2022-12-29T03:57:23;5.07;;;1.60;;
16314;SDS011;8266;52.150;4.768;2022-12-29T03:59:50;5.68;;;1.20;;
16314;SDS011;8266;52.150;4.768;2022-12-29T04:02:17;4.90;;;1.20;;
16314;SDS011;8266;52.150;4.768;2022-12-29T04:04:44;5.28;;;1.13;;
16314;SDS011;8266;52.150;4.768;2022-12-29T04:07:11;3.88;;;1.33;;
16314;SDS011;8266;52.150;4.768;2022-12-29T04:09:39;4.55;;;1.15;;
16314;SDS011;8266;52.150;4.768;2022-12-29T04:12:06;6.38;;;1.25;;
16314;SDS011;8266;52.150;4.768;2022-12-29T04:14:33;6.07;;;1.27;;
16314;SDS011;8266;52.150;4.768;2022-12-29T04:17:00;5.60;;;1.30;;
16314;SDS011;8266;52.150;4.768;2022-12-29T04:19:27;4.88;;;1.08;;
16314;SDS011;8266;52.150;4.768;2022-12-29T04:21:54;4.85;;;1.38;;
16314;SDS011;8266;52.150;4.768;2022-12-29T04:24:21;5.80;;;1.25;;
16314;SDS011;8266;52.150;4.768;2022-12-29T04:26:49;7.45;;;1.58;;
16314;SDS011;8266;52.150;4.768;2022-12-29T04:29:16;11.40;;;1.85;;
16314;SDS011;8266;52.150;4.768;2022-12-29T04:31:43;10.48;;;1.90;;
16314;SDS011;8266;52.150;4.768;2022-12-29T04:34:10;6.70;;;1.60;;
16314;SDS011;8266;52.150;4.768;2022-12-29T04:36:37;7.80;;;1.80;;
16314;SDS011;8266;52.150;4.768;2022-12-29T04:39:05;6.53;;;1.65;;
16314;SDS011;8266;52.150;4.768;2022-12-29T04:41:32;9.25;;;2.42;;
16314;SDS011;8266;52.150;4.768;2022-12-29T04:44:01;9.25;;;2.30;;
16314;SDS011;8266;52.150;4.768;2022-12-29T04:46:27;7.53;;;1.63;;
16314;SDS011;8266;52.150;4.768;2022-12-29T04:48:54;5.75;;;1.65;;
16314;SDS011;8266;52.150;4.768;2022-12-29T04:51:22;8.25;;;2.00;;
16314;SDS011;8266;52.150;4.768;2022-12-29T04:53:48;8.10;;;1.67;;
16314;SDS011;8266;52.150;4.768;2022-12-29T04:56:15;5.97;;;1.48;;
16314;SDS011;8266;52.150;4.768;2022-12-29T04:58:42;6.25;;;1.85;;
16314;SDS011;8266;52.150;4.768;2022-12-29T05:01:11;8.10;;;1.73;;
16314;SDS011;8266;52.150;4.768;2022-12-29T05:03:38;4.18;;;1.20;;
16314;SDS011;8266;52.150;4.768;2022-12-29T05:06:05;3.70;;;1.70;;
16314;SDS011;8266;52.150;4.768;2022-12-29T05:08:33;6.13;;;1.52;;
16314;SDS011;8266;52.150;4.768;2022-12-29T05:11:00;5.28;;;1.15;;
16314;SDS011;8266;52.150;4.768;2022-12-29T05:13:27;5.85;;;1.75;;
16314;SDS011;8266;52.150;4.768;2022-12-29T05:15:54;7.63;;;1.38;;
16314;SDS011;8266;52.150;4.768;2022-12-29T05:18:22;5.47;;;1.65;;
16314;SDS011;8266;52.150;4.768;2022-12-29T05:20:49;9.48;;;1.80;;
16314;SDS011;8266;52.150;4.768;2022-12-29T05:23:16;6.32;;;1.70;;
16314;SDS011;8266;52.150;4.768;2022-12-29T05:25:43;7.32;;;1.50;;
16314;SDS011;8266;52.150;4.768;2022-12-29T05:28:11;5.95;;;1.33;;
16314;SDS011;8266;52.150;4.768;2022-12-29T05:30:38;9.98;;;2.42;;
16314;SDS011;8266;52.150;4.768;2022-12-29T05:33:05;9.93;;;2.05;;
16314;SDS011;8266;52.150;4.768;2022-12-29T05:35:34;4.95;;;1.83;;
16314;SDS011;8266;52.150;4.768;2022-12-29T05:38:00;5.45;;;2.03;;
16314;SDS011;8266;52.150;4.768;2022-12-29T05:40:27;6.97;;;1.52;;
16314;SDS011;8266;52.150;4.768;2022-12-29T05:42:54;10.02;;;2.25;;
16314;SDS011;8266;52.150;4.768;2022-12-29T05:45:22;9.00;;;2.17;;
16314;SDS011;8266;52.150;4.768;2022-12-29T05:47:48;6.75;;;1.50;;
16314;SDS011;8266;52.150;4.768;2022-12-29T05:50:15;12.43;;;2.40;;
16314;SDS011;8266;52.150;4.768;2022-12-29T05:52:44;10.65;;;2.40;;
16314;SDS011;8266;52.150;4.768;2022-12-29T05:55:11;6.43;;;1.85;;
16314;SDS011;8266;52.150;4.768;2022-12-29T05:57:38;8.55;;;2.50;;
16314;SDS011;8266;52.150;4.768;2022-12-29T06:00:06;7.32;;;1.80;;
16314;SDS011;8266;52.150;4.768;2022-12-29T06:02:34;10.13;;;1.95;;
16314;SDS011;8266;52.150;4.768;2022-12-29T06:05:01;9.93;;;2.17;;
16314;SDS011;8266;52.150;4.768;2022-12-29T06:07:28;11.88;;;2.38;;
16314;SDS011;8266;52.150;4.768;2022-12-29T06:09:56;5.00;;;1.45;;
16314;SDS011;8266;52.150;4.768;2022-12-29T06:12:23;8.48;;;2.40;;
16314;SDS011;8266;52.150;4.768;2022-12-29T06:14:50;9.23;;;1.98;;
16314;SDS011;8266;52.150;4.768;2022-12-29T06:17:17;7.30;;;1.50;;
16314;SDS011;8266;52.150;4.768;2022-12-29T06:19:44;8.27;;;2.15;;
16314;SDS011;8266;52.150;4.768;2022-12-29T06:22:11;8.73;;;2.08;;
16314;SDS011;8266;52.150;4.768;2022-12-29T06:24:38;7.22;;;2.05;;
16314;SDS011;8266;52.150;4.768;2022-12-29T06:27:06;10.45;;;2.00;;
16314;SDS011;8266;52.150;4.768;2022-12-29T06:29:33;10.43;;;2.08;;
16314;SDS011;8266;52.150;4.768;2022-12-29T06:32:02;8.50;;;2.63;;
16314;SDS011;8266;52.150;4.768;2022-12-29T06:34:29;10.48;;;2.53;;
16314;SDS011;8266;52.150;4.768;2022-12-29T06:36:56;9.95;;;2.67;;
16314;SDS011;8266;52.150;4.768;2022-12-29T06:39:23;11.88;;;1.95;;
16314;SDS011;8266;52.150;4.768;2022-12-29T06:41:51;7.00;;;2.10;;
16314;SDS011;8266;52.150;4.768;2022-12-29T06:44:20;8.75;;;1.75;;
16314;SDS011;8266;52.150;4.768;2022-12-29T06:46:47;12.57;;;1.85;;
16314;SDS011;8266;52.150;4.768;2022-12-29T06:49:15;11.55;;;1.90;;
16314;SDS011;8266;52.150;4.768;2022-12-29T06:51:42;8.45;;;1.85;;
16314;SDS011;8266;52.150;4.768;2022-12-29T06:54:09;9.48;;;2.50;;
16314;SDS011;8266;52.150;4.768;2022-12-29T06:56:36;10.07;;;2.35;;
16314;SDS011;8266;52.150;4.768;2022-12-29T06:59:03;12.40;;;2.45;;
16314;SDS011;8266;52.150;4.768;2022-12-29T07:01:31;12.27;;;3.10;;
16314;SDS011;8266;52.150;4.768;2022-12-29T07:03:59;9.18;;;2.58;;
16314;SDS011;8266;52.150;4.768;2022-12-29T07:06:26;13.38;;;3.42;;
16314;SDS011;8266;52.150;4.768;2022-12-29T07:08:53;11.15;;;2.85;;
16314;SDS011;8266;52.150;4.768;2022-12-29T07:11:22;11.02;;;2.20;;
16314;SDS011;8266;52.150;4.768;2022-12-29T07:13:49;9.07;;;2.22;;
16314;SDS011;8266;52.150;4.768;2022-12-29T07:16:17;7.57;;;2.10;;
16314;SDS011;8266;52.150;4.768;2022-12-29T07:18:45;9.68;;;1.85;;
16314;SDS011;8266;52.150;4.768;2022-12-29T07:21:12;9.23;;;1.95;;
16314;SDS011;8266;52.150;4.768;2022-12-29T07:23:39;9.65;;;2.60;;
16314;SDS011;8266;52.150;4.768;2022-12-29T07:26:07;6.82;;;1.75;;
16314;SDS011;8266;52.150;4.768;2022-12-29T07:28:36;9.30;;;2.30;;
16314;SDS011;8266;52.150;4.768;2022-12-29T07:31:03;9.57;;;2.15;;
16314;SDS011;8266;52.150;4.768;2022-12-29T07:33:30;6.38;;;1.65;;
16314;SDS011;8266;52.150;4.768;2022-12-29T07:36:00;7.72;;;2.47;;
16314;SDS011;8266;52.150;4.768;2022-12-29T07:38:27;8.85;;;2.03;;
16314;SDS011;8266;52.150;4.768;2022-12-29T07:40:56;9.68;;;2.00;;
16314;SDS011;8266;52.150;4.768;2022-12-29T07:43:24;6.18;;;2.13;;
16314;SDS011;8266;52.150;4.768;2022-12-29T07:45:51;10.48;;;2.20;;
16314;SDS011;8266;52.150;4.768;2022-12-29T07:48:18;10.57;;;2.15;;
16314;SDS011;8266;52.150;4.768;2022-12-29T07:50:45;8.93;;;2.72;;
16314;SDS011;8266;52.150;4.768;2022-12-29T07:53:14;9.23;;;2.25;;
16314;SDS011;8266;52.150;4.768;2022-12-29T07:55:41;6.65;;;2.17;;
16314;SDS011;8266;52.150;4.768;2022-12-29T07:58:08;8.07;;;2.13;;
16314;SDS011;8266;52.150;4.768;2022-12-29T08:00:35;8.02;;;1.88;;
16314;SDS011;8266;52.150;4.768;2022-12-29T08:03:03;12.07;;;2.58;;
16314;SDS011;8266;52.150;4.768;2022-12-29T08:05:31;11.93;;;2.30;;
16314;SDS011;8266;52.150;4.768;2022-12-29T08:07:58;10.23;;;2.20;;
16314;SDS011;8266;52.150;4.768;2022-12-29T08:10:26;10.38;;;2.40;;
16314;SDS011;8266;52.150;4.768;2022-12-29T08:12:53;13.68;;;2.92;;
16314;SDS011;8266;52.150;4.768;2022-12-29T08:15:20;9.93;;;2.15;;
16314;SDS011;8266;52.150;4.768;2022-12-29T08:17:48;15.65;;;2.58;;
16314;SDS011;8266;52.150;4.768;2022-12-29T08:20:15;7.85;;;2.22;;
16314;SDS011;8266;52.150;4.768;2022-12-29T08:22:42;10.35;;;2.35;;
16314;SDS011;8266;52.150;4.768;2022-12-29T08:25:09;13.40;;;2.35;;
16314;SDS011;8266;52.150;4.768;2022-12-29T08:27:38;8.82;;;2.95;;
16314;SDS011;8266;52.150;4.768;2022-12-29T08:30:05;11.00;;;2.55;;
16314;SDS011;8266;52.150;4.768;2022-12-29T08:32:33;11.05;;;2.95;;
16314;SDS011;8266;52.150;4.768;2022-12-29T08:35:00;15.73;;;2.47;;
16314;SDS011;8266;52.150;4.768;2022-12-29T08:37:27;8.30;;;2.58;;
16314;SDS011;8266;52.150;4.768;2022-12-29T08:39:54;9.73;;;2.13;;
16314;SDS011;8266;52.150;4.768;2022-12-29T08:42:21;10.82;;;2.40;;
16314;SDS011;8266;52.150;4.768;2022-12-29T08:44:49;9.50;;;2.15;;
16314;SDS011;8266;52.150;4.768;2022-12-29T08:47:16;10.90;;;3.15;;
16314;SDS011;8266;52.150;4.768;2022-12-29T08:49:43;12.80;;;2.75;;
16314;SDS011;8266;52.150;4.768;2022-12-29T08:52:10;11.18;;;2.53;;
16314;SDS011;8266;52.150;4.768;2022-12-29T08:54:37;6.38;;;2.28;;
16314;SDS011;8266;52.150;4.768;2022-12-29T08:57:04;11.38;;;2.30;;
16314;SDS011;8266;52.150;4.768;2022-12-29T08:59:31;8.02;;;2.60;;
16314;SDS011;8266;52.150;4.768;2022-12-29T09:01:59;9.88;;;2.05;;
16314;SDS011;8266;52.150;4.768;2022-12-29T09:04:26;12.52;;;2.55;;
16314;SDS011;8266;52.150;4.768;2022-12-29T09:06:53;9.60;;;2.22;;
16314;SDS011;8266;52.150;4.768;2022-12-29T09:09:22;10.45;;;2.33;;
16314;SDS011;8266;52.150;4.768;2022-12-29T09:11:49;8.70;;;2.50;;
16314;SDS011;8266;52.150;4.768;2022-12-29T09:14:16;9.32;;;2.47;;
16314;SDS011;8266;52.150;4.768;2022-12-29T09:16:43;6.78;;;2.03;;
16314;SDS011;8266;52.150;4.768;2022-12-29T09:19:29;10.65;;;2.47;;
16314;SDS011;8266;52.150;4.768;2022-12-29T09:21:56;13.50;;;2.95;;
16314;SDS011;8266;52.150;4.768;2022-12-29T09:24:24;6.20;;;2.13;;
16314;SDS011;8266;52.150;4.768;2022-12-29T09:26:51;12.50;;;2.90;;
16314;SDS011;8266;52.150;4.768;2022-12-29T09:29:19;9.07;;;2.67;;
16314;SDS011;8266;52.150;4.768;2022-12-29T09:31:45;8.98;;;2.50;;
16314;SDS011;8266;52.150;4.768;2022-12-29T09:34:12;10.88;;;2.30;;
16314;SDS011;8266;52.150;4.768;2022-12-29T09:36:42;10.32;;;2.20;;
16314;SDS011;8266;52.150;4.768;2022-12-29T09:39:08;12.57;;;2.92;;
16314;SDS011;8266;52.150;4.768;2022-12-29T09:41:36;11.52;;;2.40;;
16314;SDS011;8266;52.150;4.768;2022-12-29T09:44:08;8.35;;;2.47;;
16314;SDS011;8266;52.150;4.768;2022-12-29T09:46:44;8.50;;;2.45;;
16314;SDS011;8266;52.150;4.768;2022-12-29T09:49:16;11.45;;;2.90;;
16314;SDS011;8266;52.150;4.768;2022-12-29T09:51:50;8.90;;;2.38;;
16314;SDS011;8266;52.150;4.768;2022-12-29T09:54:22;10.45;;;2.70;;
16314;SDS011;8266;52.150;4.768;2022-12-29T09:57:03;13.07;;;2.92;;
16314;SDS011;8266;52.150;4.768;2022-12-29T09:59:39;8.63;;;2.08;;
16314;SDS011;8266;52.150;4.768;2022-12-29T10:02:12;10.45;;;2.47;;
16314;SDS011;8266;52.150;4.768;2022-12-29T10:04:52;12.60;;;2.88;;
16314;SDS011;8266;52.150;4.768;2022-12-29T10:07:23;11.77;;;2.58;;
16314;SDS011;8266;52.150;4.768;2022-12-29T10:09:59;13.77;;;3.13;;
16314;SDS011;8266;52.150;4.768;2022-12-29T10:12:45;14.48;;;3.03;;
16314;SDS011;8266;52.150;4.768;2022-12-29T10:15:27;10.38;;;2.42;;
16314;SDS011;8266;52.150;4.768;2022-12-29T10:18:03;13.68;;;2.70;;
16314;SDS011;8266;52.150;4.768;2022-12-29T10:20:46;12.90;;;3.10;;
16314;SDS011;8266;52.150;4.768;2022-12-29T10:23:24;15.40;;;3.50;;
16314;SDS011;8266;52.150;4.768;2022-12-29T10:25:54;12.15;;;2.97;;
16314;SDS011;8266;52.150;4.768;2022-12-29T10:28:23;18.60;;;4.05;;
16314;SDS011;8266;52.150;4.768;2022-12-29T10:30:58;17.17;;;3.85;;
16314;SDS011;8266;52.150;4.768;2022-12-29T10:33:30;13.80;;;3.22;;
16314;SDS011;8266;52.150;4.768;2022-12-29T10:36:02;16.52;;;3.50;;
16314;SDS011;8266;52.150;4.768;2022-12-29T10:38:40;11.20;;;2.65;;
16314;SDS011;8266;52.150;4.768;2022-12-29T10:41:15;17.63;;;3.65;;
16314;SDS011;8266;52.150;4.768;2022-12-29T10:43:47;16.33;;;4.00;;
16314;SDS011;8266;52.150;4.768;2022-12-29T10:46:18;15.25;;;3.45;;
16314;SDS011;8266;52.150;4.768;2022-12-29T10:48:47;14.18;;;3.90;;
16314;SDS011;8266;52.150;4.768;2022-12-29T10:51:16;19.17;;;4.18;;
16314;SDS011;8266;52.150;4.768;2022-12-29T10:53:49;9.25;;;2.97;;
16314;SDS011;8266;52.150;4.768;2022-12-29T10:56:21;14.32;;;4.40;;
16314;SDS011;8266;52.150;4.768;2022-12-29T10:58:57;14.77;;;3.90;;
16314;SDS011;8266;52.150;4.768;2022-12-29T11:01:31;15.05;;;3.08;;
16314;SDS011;8266;52.150;4.768;2022-12-29T11:04:03;15.43;;;3.50;;
16314;SDS011;8266;52.150;4.768;2022-12-29T11:06:36;13.02;;;3.50;;
16314;SDS011;8266;52.150;4.768;2022-12-29T11:09:09;10.23;;;2.90;;
16314;SDS011;8266;52.150;4.768;2022-12-29T11:11:41;16.05;;;3.55;;
16314;SDS011;8266;52.150;4.768;2022-12-29T11:14:11;13.27;;;3.75;;
16314;SDS011;8266;52.150;4.768;2022-12-29T11:16:39;14.73;;;3.70;;
16314;SDS011;8266;52.150;4.768;2022-12-29T11:19:19;13.35;;;3.63;;
16314;SDS011;8266;52.150;4.768;2022-12-29T11:21:48;14.52;;;2.53;;
16314;SDS011;8266;52.150;4.768;2022-12-29T11:24:21;12.55;;;2.95;;
16314;SDS011;8266;52.150;4.768;2022-12-29T11:26:49;13.35;;;3.22;;
16314;SDS011;8266;52.150;4.768;2022-12-29T11:29:22;11.07;;;2.33;;
16314;SDS011;8266;52.150;4.768;2022-12-29T11:31:51;8.55;;;2.55;;
16314;SDS011;8266;52.150;4.768;2022-12-29T11:34:20;12.00;;;2.10;;
16314;SDS011;8266;52.150;4.768;2022-12-29T11:36:50;8.18;;;2.60;;
16314;SDS011;8266;52.150;4.768;2022-12-29T11:39:28;9.45;;;2.75;;
16314;SDS011;8266;52.150;4.768;2022-12-29T11:42:00;9.30;;;2.25;;
16314;SDS011;8266;52.150;4.768;2022-12-29T11:44:29;10.68;;;2.08;;
16314;SDS011;8266;52.150;4.768;2022-12-29T11:47:03;6.40;;;1.80;;
16314;SDS011;8266;52.150;4.768;2022-12-29T11:49:34;7.05;;;2.28;;
16314;SDS011;8266;52.150;4.768;2022-12-29T11:52:02;9.10;;;2.17;;
16314;SDS011;8266;52.150;4.768;2022-12-29T11:54:31;9.02;;;2.40;;
16314;SDS011;8266;52.150;4.768;2022-12-29T11:57:08;9.02;;;2.08;;
16314;SDS011;8266;52.150;4.768;2022-12-29T11:59:41;11.32;;;2.13;;
16314;SDS011;8266;52.150;4.768;2022-12-29T12:02:17;11.18;;;2.63;;
16314;SDS011;8266;52.150;4.768;2022-12-29T12:05:01;9.15;;;2.65;;
16314;SDS011;8266;52.150;4.768;2022-12-29T12:07:37;11.75;;;2.78;;
16314;SDS011;8266;52.150;4.768;2022-12-29T12:10:12;8.52;;;2.17;;
16314;SDS011;8266;52.150;4.768;2022-12-29T12:12:49;8.75;;;2.40;;
16314;SDS011;8266;52.150;4.768;2022-12-29T12:15:21;7.07;;;1.70;;
16314;SDS011;8266;52.150;4.768;2022-12-29T12:17:53;7.45;;;1.58;;
16314;SDS011;8266;52.150;4.768;2022-12-29T12:20:26;7.30;;;2.05;;
16314;SDS011;8266;52.150;4.768;2022-12-29T12:23:05;4.50;;;1.35;;
16314;SDS011;8266;52.150;4.768;2022-12-29T12:25:40;8.35;;;1.95;;
16314;SDS011;8266;52.150;4.768;2022-12-29T12:28:13;9.75;;;2.00;;
16314;SDS011;8266;52.150;4.768;2022-12-29T12:30:47;5.68;;;1.60;;
16314;SDS011;8266;52.150;4.768;2022-12-29T12:33:18;10.63;;;1.95;;
16314;SDS011;8266;52.150;4.768;2022-12-29T12:35:53;8.65;;;2.10;;
16314;SDS011;8266;52.150;4.768;2022-12-29T12:38:34;6.70;;;1.58;;
16314;SDS011;8266;52.150;4.768;2022-12-29T12:41:10;11.07;;;2.53;;
16314;SDS011;8266;52.150;4.768;2022-12-29T12:43:42;13.63;;;2.50;;
16314;SDS011;8266;52.150;4.768;2022-12-29T12:46:16;16.40;;;2.55;;
16314;SDS011;8266;52.150;4.768;2022-12-29T12:49:19;11.65;;;2.95;;
16314;SDS011;8266;52.150;4.768;2022-12-29T12:52:04;7.15;;;2.40;;
16314;SDS011;8266;52.150;4.768;2022-12-29T12:54:43;11.27;;;2.65;;
16314;SDS011;8266;52.150;4.768;2022-12-29T12:57:22;10.02;;;2.45;;
16314;SDS011;8266;52.150;4.768;2022-12-29T12:59:56;13.43;;;2.97;;
16314;SDS011;8266;52.150;4.768;2022-12-29T13:02:37;9.73;;;2.40;;
16314;SDS011;8266;52.150;4.768;2022-12-29T13:05:26;8.13;;;2.08;;
16314;SDS011;8266;52.150;4.768;2022-12-29T13:08:10;8.60;;;1.95;;
16314;SDS011;8266;52.150;4.768;2022-12-29T13:10:50;8.13;;;1.58;;
16314;SDS011;8266;52.150;4.768;2022-12-29T13:13:31;9.70;;;2.30;;
16314;SDS011;8266;52.150;4.768;2022-12-29T13:16:21;8.45;;;2.88;;
16314;SDS011;8266;52.150;4.768;2022-12-29T13:18:55;9.55;;;2.10;;
16314;SDS011;8266;52.150;4.768;2022-12-29T13:21:37;11.75;;;2.15;;
16314;SDS011;8266;52.150;4.768;2022-12-29T13:24:15;12.75;;;2.80;;
16314;SDS011;8266;52.150;4.768;2022-12-29T13:26:49;14.02;;;2.58;;
16314;SDS011;8266;52.150;4.768;2022-12-29T13:29:23;9.68;;;2.13;;
16314;SDS011;8266;52.150;4.768;2022-12-29T13:32:02;14.23;;;2.63;;
16314;SDS011;8266;52.150;4.768;2022-12-29T13:34:54;13.35;;;2.40;;
16314;SDS011;8266;52.150;4.768;2022-12-29T13:37:29;10.85;;;2.75;;
16314;SDS011;8266;52.150;4.768;2022-12-29T13:40:01;9.23;;;2.53;;
16314;SDS011;8266;52.150;4.768;2022-12-29T13:42:36;10.75;;;2.72;;
16314;SDS011;8266;52.150;4.768;2022-12-29T13:45:06;11.90;;;2.60;;
16314;SDS011;8266;52.150;4.768;2022-12-29T13:47:37;10.82;;;2.45;;
16314;SDS011;8266;52.150;4.768;2022-12-29T13:50:12;10.32;;;2.42;;
16314;SDS011;8266;52.150;4.768;2022-12-29T13:52:43;11.43;;;2.60;;
16314;SDS011;8266;52.150;4.768;2022-12-29T13:55:19;12.02;;;2.13;;
16314;SDS011;8266;52.150;4.768;2022-12-29T13:57:54;11.77;;;2.80;;
16314;SDS011;8266;52.150;4.768;2022-12-29T14:00:28;8.35;;;2.42;;
16314;SDS011;8266;52.150;4.768;2022-12-29T14:03:15;12.57;;;2.65;;
16314;SDS011;8266;52.150;4.768;2022-12-29T14:06:02;6.97;;;2.38;;
16314;SDS011;8266;52.150;4.768;2022-12-29T14:08:36;9.45;;;2.03;;
16314;SDS011;8266;52.150;4.768;2022-12-29T14:11:05;5.95;;;1.70;;
16314;SDS011;8266;52.150;4.768;2022-12-29T14:13:36;7.78;;;1.60;;
16314;SDS011;8266;52.150;4.768;2022-12-29T14:16:07;7.28;;;1.90;;
16314;SDS011;8266;52.150;4.768;2022-12-29T14:18:41;3.83;;;1.30;;
16314;SDS011;8266;52.150;4.768;2022-12-29T14:21:11;3.58;;;1.45;;
16314;SDS011;8266;52.150;4.768;2022-12-29T14:23:47;6.32;;;1.60;;
16314;SDS011;8266;52.150;4.768;2022-12-29T14:26:17;3.67;;;1.58;;
16314;SDS011;8266;52.150;4.768;2022-12-29T14:32:00;7.05;;;1.65;;
16314;SDS011;8266;52.150;4.768;2022-12-29T14:34:29;8.13;;;2.00;;
16314;SDS011;8266;52.150;4.768;2022-12-29T14:37:03;7.88;;;1.60;;
16314;SDS011;8266;52.150;4.768;2022-12-29T14:39:37;7.35;;;2.05;;
16314;SDS011;8266;52.150;4.768;2022-12-29T14:42:06;10.20;;;2.03;;
16314;SDS011;8266;52.150;4.768;2022-12-29T14:44:45;6.57;;;1.67;;
16314;SDS011;8266;52.150;4.768;2022-12-29T14:47:17;4.45;;;1.52;;
16314;SDS011;8266;52.150;4.768;2022-12-29T14:49:48;8.52;;;2.17;;
16314;SDS011;8266;52.150;4.768;2022-12-29T14:52:17;5.47;;;1.55;;
16314;SDS011;8266;52.150;4.768;2022-12-29T14:54:47;6.05;;;1.90;;
16314;SDS011;8266;52.150;4.768;2022-12-29T14:57:20;7.30;;;2.00;;
16314;SDS011;8266;52.150;4.768;2022-12-29T14:59:53;5.43;;;1.50;;
16314;SDS011;8266;52.150;4.768;2022-12-29T15:02:26;6.00;;;1.63;;
16314;SDS011;8266;52.150;4.768;2022-12-29T15:05:00;7.93;;;2.00;;
16314;SDS011;8266;52.150;4.768;2022-12-29T15:07:28;8.90;;;2.22;;
16314;SDS011;8266;52.150;4.768;2022-12-29T15:09:58;5.15;;;1.95;;
16314;SDS011;8266;52.150;4.768;2022-12-29T15:12:33;7.97;;;1.80;;
16314;SDS011;8266;52.150;4.768;2022-12-29T15:15:17;9.68;;;2.03;;
16314;SDS011;8266;52.150;4.768;2022-12-29T15:17:46;5.88;;;1.73;;
16314;SDS011;8266;52.150;4.768;2022-12-29T15:20:14;10.73;;;2.83;;
16314;SDS011;8266;52.150;4.768;2022-12-29T15:22:47;6.95;;;2.17;;
16314;SDS011;8266;52.150;4.768;2022-12-29T15:25:18;7.35;;;1.88;;
16314;SDS011;8266;52.150;4.768;2022-12-29T15:27:48;8.27;;;1.88;;
16314;SDS011;8266;52.150;4.768;2022-12-29T15:30:17;11.32;;;2.42;;
16314;SDS011;8266;52.150;4.768;2022-12-29T15:32:45;7.00;;;1.90;;